createdAt,value
2022-09-14T00:01:30.125Z,2.10
2022-09-14T00:03:32.795Z,2.10
2022-09-14T00:05:36.293Z,2.75
2022-09-14T00:07:38.878Z,2.00
2022-09-14T00:09:41.663Z,2.08
2022-09-14T00:11:44.371Z,2.22
2022-09-14T00:13:48.200Z,2.22
2022-09-14T00:15:52.008Z,1.90
2022-09-14T00:17:55.997Z,1.85
2022-09-14T00:19:58.775Z,1.90
2022-09-14T00:22:01.460Z,1.90
2022-09-14T00:24:05.028Z,2.28
2022-09-14T00:26:10.535Z,2.20
2022-09-14T00:28:13.250Z,2.00
2022-09-14T00:30:15.940Z,2.20
2022-09-14T00:32:18.519Z,1.98
2022-09-14T00:34:22.556Z,2.15
2022-09-14T00:36:27.103Z,2.15
2022-09-14T00:38:29.692Z,2.47
2022-09-14T00:40:32.325Z,2.33
2022-09-14T00:42:34.919Z,2.20
2022-09-14T00:45:00.709Z,1.80
2022-09-14T00:47:03.786Z,2.22
2022-09-14T00:49:08.902Z,2.03
2022-09-14T00:51:13.074Z,1.95
2022-09-14T00:53:15.671Z,2.42
2022-09-14T00:55:22.690Z,2.10
2022-09-14T00:57:27.321Z,2.15
2022-09-14T00:59:32.332Z,2.42
2022-09-14T01:01:35.258Z,2.40
2022-09-14T01:03:38.338Z,2.35
2022-09-14T01:05:51.516Z,2.50
2022-09-14T01:08:05.424Z,2.00
2022-09-14T01:10:19.346Z,2.55
2022-09-14T01:12:30.809Z,2.20
2022-09-14T01:14:42.356Z,2.72
2022-09-14T01:16:52.936Z,2.58
2022-09-14T01:18:58.618Z,2.78
2022-09-14T01:21:05.037Z,2.80
2022-09-14T01:23:18.215Z,2.80
2022-09-14T01:25:42.938Z,2.42
2022-09-14T01:27:47.731Z,1.88
2022-09-14T01:29:57.309Z,2.83
2022-09-14T01:32:04.667Z,3.58
2022-09-14T01:34:13.171Z,3.50
2022-09-14T01:36:17.250Z,3.28
2022-09-14T01:38:23.268Z,3.20
2022-09-14T01:40:29.352Z,2.95
2022-09-14T01:42:34.356Z,3.10
2022-09-14T01:44:41.963Z,3.25
2022-09-14T01:46:49.520Z,3.38
2022-09-14T01:48:56.499Z,2.38
2022-09-14T01:51:02.396Z,1.85
2022-09-14T01:53:09.792Z,2.20
2022-09-14T01:55:17.530Z,2.03
2022-09-14T01:57:24.517Z,2.38
2022-09-14T01:59:30.270Z,2.20
2022-09-14T02:01:38.094Z,1.80
2022-09-14T02:03:47.342Z,1.73
2022-09-14T02:05:57.065Z,2.00
2022-09-14T02:07:59.927Z,1.60
2022-09-14T02:10:03.724Z,1.80
2022-09-14T02:12:07.055Z,1.85
2022-09-14T02:14:09.835Z,2.20
2022-09-14T02:16:13.210Z,1.90
2022-09-14T02:18:17.262Z,1.90
2022-09-14T02:20:28.880Z,2.30
2022-09-14T02:22:32.533Z,2.17
2022-09-14T02:24:35.963Z,2.03
2022-09-14T02:26:40.164Z,2.40
2022-09-14T02:28:43.018Z,2.40
2022-09-14T02:30:53.275Z,2.13
2022-09-14T02:33:08.329Z,2.80
2022-09-14T02:35:19.719Z,2.60
2022-09-14T02:37:31.534Z,2.53
2022-09-14T02:39:45.527Z,2.60
2022-09-14T02:41:52.401Z,2.75
2022-09-14T02:44:01.550Z,2.60
2022-09-14T02:46:15.109Z,2.45
2022-09-14T02:48:24.550Z,2.72
2022-09-14T02:50:36.828Z,2.83
2022-09-14T02:54:51.270Z,2.50
2022-09-14T02:56:53.876Z,3.03
2022-09-14T02:58:57.121Z,3.20
2022-09-14T03:00:59.843Z,2.83
2022-09-14T03:03:02.513Z,2.78
2022-09-14T03:05:05.982Z,2.95
2022-09-14T03:07:10.133Z,3.33
2022-09-14T03:09:12.732Z,3.08
2022-09-14T03:11:15.350Z,3.25
2022-09-14T03:13:18.183Z,2.92
2022-09-14T03:15:20.983Z,2.80
2022-09-14T03:17:23.579Z,2.80
2022-09-14T03:19:26.236Z,3.35
2022-09-14T03:21:28.872Z,3.20
2022-09-14T03:23:36.950Z,3.20
2022-09-14T03:25:41.324Z,3.22
2022-09-14T03:27:44.934Z,3.28
2022-09-14T03:29:48.197Z,3.10
2022-09-14T03:31:50.823Z,3.17
2022-09-14T03:33:54.970Z,3.05
2022-09-14T03:35:57.580Z,3.85
2022-09-14T03:38:00.890Z,3.10
2022-09-14T03:40:06.111Z,3.80
2022-09-14T03:42:08.911Z,3.63
2022-09-14T03:44:11.692Z,3.35
2022-09-14T03:46:16.256Z,3.97
2022-09-14T03:48:18.889Z,3.45
2022-09-14T03:50:21.492Z,3.10
2022-09-14T03:52:24.064Z,3.72
2022-09-14T03:54:26.738Z,3.75
2022-09-14T03:56:30.880Z,3.70
2022-09-14T03:58:33.553Z,3.42
2022-09-14T04:00:36.190Z,3.45
2022-09-14T04:02:38.905Z,3.15
2022-09-14T04:04:41.497Z,3.95
2022-09-14T04:06:44.119Z,4.00
2022-09-14T04:08:47.837Z,3.90
2022-09-14T04:10:50.670Z,3.90
2022-09-14T04:12:54.738Z,4.68
2022-09-14T04:14:57.315Z,4.15
2022-09-14T04:17:00.083Z,4.20
2022-09-14T04:19:02.763Z,4.28
2022-09-14T04:21:08.644Z,3.83
2022-09-14T04:23:12.230Z,4.40
2022-09-14T04:25:14.863Z,4.10
2022-09-14T04:27:17.647Z,4.53
2022-09-14T04:29:21.615Z,4.95
2022-09-14T04:31:24.921Z,4.40
2022-09-14T04:33:30.919Z,5.18
2022-09-14T04:35:33.532Z,5.40
2022-09-14T04:37:36.136Z,5.03
2022-09-14T04:39:38.906Z,5.25
2022-09-14T04:41:41.663Z,5.00
2022-09-14T04:43:45.473Z,6.07
2022-09-14T04:45:49.783Z,5.93
2022-09-14T04:47:52.377Z,6.28
2022-09-14T04:49:55.014Z,5.85
2022-09-14T04:51:57.787Z,6.70
2022-09-14T04:54:02.091Z,6.68
2022-09-14T04:56:07.072Z,6.32
2022-09-14T04:58:09.665Z,6.40
2022-09-14T05:00:13.512Z,6.75
2022-09-14T05:02:17.566Z,8.50
2022-09-14T05:04:20.291Z,7.35
2022-09-14T05:06:24.943Z,6.50
2022-09-14T05:08:27.512Z,6.18
2022-09-14T05:10:30.123Z,6.00
2022-09-14T05:12:32.708Z,5.72
2022-09-14T05:14:35.305Z,6.40
2022-09-14T05:16:39.695Z,6.78
2022-09-14T05:18:44.573Z,7.30
2022-09-14T05:20:47.332Z,6.90
2022-09-14T05:22:51.160Z,6.50
2022-09-14T05:24:53.780Z,6.20
2022-09-14T05:27:00.233Z,7.20
2022-09-14T05:29:04.718Z,6.40
2022-09-14T05:31:09.278Z,5.97
2022-09-14T05:33:11.930Z,6.53
2022-09-14T05:35:16.156Z,6.25
2022-09-14T05:37:18.792Z,6.63
2022-09-14T05:39:23.407Z,5.57
2022-09-14T05:41:26.179Z,5.28
2022-09-14T05:43:30.284Z,5.45
2022-09-14T05:45:34.237Z,4.95
2022-09-14T05:47:39.163Z,5.05
2022-09-14T05:49:47.656Z,5.68
2022-09-14T05:51:51.623Z,5.03
2022-09-14T05:53:56.775Z,5.20
2022-09-14T05:56:03.812Z,4.80
2022-09-14T05:58:06.747Z,4.95
2022-09-14T06:00:10.769Z,4.38
2022-09-14T06:02:17.475Z,4.45
2022-09-14T06:04:20.634Z,4.65
2022-09-14T06:06:24.103Z,5.07
2022-09-14T06:08:28.241Z,4.93
2022-09-14T06:10:30.864Z,4.80
2022-09-14T06:12:33.511Z,4.30
2022-09-14T06:14:36.224Z,4.40
2022-09-14T06:16:38.855Z,4.05
2022-09-14T06:18:42.862Z,3.95
2022-09-14T06:20:51.218Z,4.43
2022-09-14T06:22:53.808Z,4.30
2022-09-14T06:24:57.811Z,3.90
2022-09-14T06:27:00.403Z,4.32
2022-09-14T06:29:04.137Z,4.50
2022-09-14T06:31:09.948Z,4.50
2022-09-14T06:33:12.611Z,4.10
2022-09-14T06:35:15.430Z,4.25
2022-09-14T06:37:18.053Z,4.40
2022-09-14T06:39:20.991Z,4.47
2022-09-14T06:41:29.018Z,3.95
2022-09-14T06:43:33.835Z,4.05
2022-09-14T06:45:37.338Z,3.90
2022-09-14T06:47:40.051Z,4.00
2022-09-14T06:49:42.642Z,4.15
2022-09-14T06:51:46.485Z,4.10
2022-09-14T06:53:50.365Z,4.10
2022-09-14T06:55:53.963Z,3.65
2022-09-14T06:57:57.974Z,4.15
2022-09-14T07:00:00.562Z,3.65
2022-09-14T07:02:03.595Z,3.80
2022-09-14T07:04:06.880Z,4.10
2022-09-14T07:06:11.529Z,3.50
2022-09-14T07:08:14.134Z,3.63
2022-09-14T07:10:16.839Z,3.88
2022-09-14T07:12:19.454Z,4.35
2022-09-14T07:14:23.686Z,4.07
2022-09-14T07:16:26.303Z,3.70
2022-09-14T07:18:32.780Z,3.30
2022-09-14T07:20:35.635Z,3.17
2022-09-14T07:22:38.310Z,3.20
2022-09-14T07:24:41.138Z,3.70
2022-09-14T07:26:43.904Z,3.45
2022-09-14T07:28:48.923Z,3.60
2022-09-14T07:30:57.049Z,3.72
2022-09-14T07:33:01.486Z,3.40
2022-09-14T07:35:05.145Z,3.67
2022-09-14T07:37:07.753Z,3.20
2022-09-14T07:39:12.418Z,3.28
2022-09-14T07:41:15.122Z,3.20
2022-09-14T07:43:17.769Z,3.00
2022-09-14T07:45:20.459Z,3.47
2022-09-14T07:47:24.407Z,2.90
2022-09-14T07:49:27.118Z,3.22
2022-09-14T07:51:30.991Z,2.90
2022-09-14T07:53:36.161Z,2.80
2022-09-14T07:55:39.579Z,3.22
2022-09-14T07:57:55.655Z,2.80
2022-09-14T07:59:59.910Z,2.80
2022-09-14T08:02:02.892Z,2.80
2022-09-14T08:04:07.866Z,2.55
2022-09-14T08:06:13.029Z,2.83
2022-09-14T08:08:15.701Z,2.78
2022-09-14T08:10:18.321Z,3.20
2022-09-14T08:12:20.955Z,2.83
2022-09-14T08:14:23.668Z,2.70
2022-09-14T08:16:27.848Z,2.80
2022-09-14T08:18:31.801Z,2.72
2022-09-14T08:20:36.384Z,2.38
2022-09-14T08:22:39.621Z,2.60
2022-09-14T08:24:42.464Z,2.60
2022-09-14T08:26:45.978Z,2.80
2022-09-14T08:28:50.519Z,3.30
2022-09-14T08:30:53.745Z,2.75
2022-09-14T08:32:58.949Z,2.80
2022-09-14T08:35:04.855Z,2.78
2022-09-14T08:37:10.697Z,2.97
2022-09-14T08:39:15.340Z,2.50
2022-09-14T08:41:27.121Z,2.60
2022-09-14T08:43:29.817Z,2.30
2022-09-14T08:45:32.517Z,2.53
2022-09-14T08:47:38.932Z,2.50
2022-09-14T08:49:47.437Z,2.28
2022-09-14T08:51:51.884Z,2.72
2022-09-14T08:53:59.359Z,3.20
2022-09-14T08:56:07.814Z,2.42
2022-09-14T08:58:24.244Z,2.60
2022-09-14T09:00:35.258Z,2.30
2022-09-14T09:02:51.017Z,2.20
2022-09-14T09:04:57.595Z,2.47
2022-09-14T09:07:08.743Z,2.47
2022-09-14T09:09:19.021Z,2.20
2022-09-14T09:11:25.228Z,2.10
2022-09-14T09:13:32.082Z,2.00
2022-09-14T09:15:38.291Z,2.33
2022-09-14T09:17:45.624Z,2.03
2022-09-14T09:19:57.624Z,2.33
2022-09-14T09:24:16.949Z,1.92
2022-09-14T09:26:27.247Z,1.70
2022-09-14T09:28:31.029Z,1.77
2022-09-14T09:30:33.771Z,1.80
2022-09-14T09:32:38.287Z,1.90
2022-09-14T09:34:40.912Z,2.25
2022-09-14T09:36:47.667Z,1.90
2022-09-14T09:38:50.504Z,1.83
2022-09-14T09:40:55.870Z,2.10
2022-09-14T09:43:10.985Z,2.00
2022-09-14T09:45:13.644Z,2.05
2022-09-14T09:47:16.446Z,2.00
2022-09-14T09:49:23.852Z,2.03
2022-09-14T09:51:31.848Z,2.08
2022-09-14T09:53:37.831Z,1.98
2022-09-14T09:55:41.017Z,2.03
2022-09-14T09:57:43.657Z,1.90
2022-09-14T09:59:48.522Z,2.00
2022-09-14T10:01:52.283Z,2.20
2022-09-14T10:04:04.801Z,2.28
2022-09-14T10:06:10.195Z,1.92
2022-09-14T10:08:19.012Z,2.22
2022-09-14T10:10:26.750Z,2.38
2022-09-14T10:12:30.815Z,2.00
2022-09-14T10:14:34.799Z,2.08
2022-09-14T10:16:41.175Z,1.88
2022-09-14T10:18:48.986Z,2.10
2022-09-14T10:21:09.875Z,2.10
2022-09-14T10:23:26.348Z,2.20
2022-09-14T10:25:29.157Z,2.47
2022-09-14T10:27:40.678Z,2.33
2022-09-14T10:29:45.415Z,2.10
2022-09-14T10:31:51.063Z,2.20
2022-09-14T10:33:56.686Z,2.28
2022-09-14T10:36:10.384Z,2.17
2022-09-14T10:38:30.002Z,2.38
2022-09-14T10:40:37.658Z,2.05
2022-09-14T10:42:43.288Z,2.20
2022-09-14T10:45:05.704Z,2.15
2022-09-14T10:47:22.999Z,1.98
2022-09-14T10:49:41.081Z,2.00
2022-09-14T10:51:52.890Z,1.83
2022-09-14T10:54:02.312Z,2.05
2022-09-14T10:56:10.211Z,2.20
2022-09-14T10:58:25.249Z,2.20
2022-09-14T11:00:31.115Z,2.30
2022-09-14T11:03:09.158Z,2.50
2022-09-14T11:05:21.464Z,2.03
2022-09-14T11:07:33.711Z,2.15
2022-09-14T11:09:43.180Z,2.08
2022-09-14T11:11:54.840Z,2.40
2022-09-14T11:14:07.979Z,2.38
2022-09-14T11:16:24.635Z,2.15
2022-09-14T11:18:35.184Z,2.47
2022-09-14T11:20:47.827Z,2.00
2022-09-14T11:23:00.285Z,2.08
2022-09-14T11:25:11.374Z,1.98
2022-09-14T11:27:27.099Z,3.00
2022-09-14T11:29:33.969Z,2.08
2022-09-14T11:31:41.711Z,1.70
2022-09-14T11:33:53.808Z,1.90
2022-09-14T11:38:08.583Z,1.88
2022-09-14T11:40:20.870Z,1.58
2022-09-14T11:42:27.241Z,1.70
2022-09-14T11:44:34.351Z,1.83
2022-09-14T11:46:40.480Z,1.70
2022-09-14T11:48:50.594Z,1.58
2022-09-14T11:50:58.553Z,1.60
2022-09-14T11:53:09.796Z,1.60
2022-09-14T11:55:18.078Z,1.77
2022-09-14T11:57:23.928Z,1.63
2022-09-14T11:59:36.241Z,2.13
2022-09-14T12:01:40.215Z,2.00
2022-09-14T12:03:54.498Z,2.05
2022-09-14T12:06:17.274Z,2.10
2022-09-14T12:08:39.629Z,1.63
2022-09-14T12:11:04.393Z,1.92
2022-09-14T12:13:20.965Z,2.05
2022-09-14T12:15:34.628Z,2.03
2022-09-14T12:17:40.359Z,1.80
2022-09-14T12:21:47.214Z,1.95
2022-09-14T12:23:57.062Z,1.80
2022-09-14T12:26:04.277Z,2.20
2022-09-14T12:28:29.506Z,1.80
2022-09-14T12:30:55.747Z,1.77
2022-09-14T12:32:58.409Z,2.17
2022-09-14T12:35:38.746Z,2.00
2022-09-14T12:37:42.088Z,1.90
2022-09-14T12:40:18.407Z,1.95
2022-09-14T12:42:32.041Z,1.88
2022-09-14T12:44:38.442Z,1.80
2022-09-14T12:46:41.283Z,1.92
2022-09-14T12:49:02.632Z,1.80
2022-09-14T12:51:06.558Z,2.13
2022-09-14T12:53:22.452Z,1.90
2022-09-14T12:55:40.865Z,1.63
2022-09-14T12:57:52.490Z,1.80
2022-09-14T13:00:04.614Z,1.90
2022-09-14T13:02:41.645Z,1.90
2022-09-14T13:04:45.747Z,1.88
2022-09-14T13:06:49.534Z,2.50
2022-09-14T13:08:56.637Z,2.90
2022-09-14T13:10:59.325Z,2.40
2022-09-14T13:13:06.436Z,2.28
2022-09-14T13:15:19.232Z,2.50
2022-09-14T13:17:22.890Z,2.85
2022-09-14T13:19:28.711Z,2.65
2022-09-14T13:21:31.833Z,2.67
2022-09-14T13:23:40.490Z,2.65
2022-09-14T13:25:43.107Z,2.38
2022-09-14T13:27:50.332Z,2.92
2022-09-14T13:30:02.393Z,2.42
2022-09-14T13:32:05.180Z,3.20
2022-09-14T13:34:08.040Z,2.90
2022-09-14T13:36:10.819Z,2.50
2022-09-14T13:38:18.316Z,2.80
2022-09-14T13:40:24.649Z,2.33
2022-09-14T13:44:32.683Z,2.08
2022-09-14T13:46:37.287Z,1.98
2022-09-14T13:48:42.611Z,2.00
2022-09-14T13:50:48.621Z,2.47
2022-09-14T13:53:01.662Z,2.30
2022-09-14T13:55:18.594Z,2.20
2022-09-14T13:57:24.177Z,2.55
2022-09-14T13:59:26.803Z,1.92
2022-09-14T14:01:30.548Z,2.10
2022-09-14T14:03:37.738Z,1.90
2022-09-14T14:05:43.596Z,1.75
2022-09-14T14:07:46.901Z,1.77
2022-09-14T14:09:52.497Z,1.52
2022-09-14T14:11:56.285Z,1.50
2022-09-14T14:14:15.062Z,1.45
2022-09-14T14:16:20.086Z,1.48
2022-09-14T14:18:44.369Z,1.77
2022-09-14T14:20:46.988Z,1.30
2022-09-14T14:23:00.526Z,1.17
2022-09-14T14:25:19.715Z,1.20
2022-09-14T14:27:32.022Z,1.52
2022-09-14T14:31:37.149Z,1.70
2022-09-14T14:33:47.564Z,1.50
2022-09-14T14:35:53.503Z,1.80
2022-09-14T14:37:56.731Z,1.55
2022-09-14T14:39:59.427Z,1.60
2022-09-14T14:42:03.229Z,1.88
2022-09-14T14:44:07.429Z,1.60
2022-09-14T14:46:10.581Z,1.80
2022-09-14T14:48:13.702Z,1.50
2022-09-14T14:50:19.367Z,1.60
2022-09-14T14:52:21.993Z,1.50
2022-09-14T14:54:24.635Z,1.35
2022-09-14T14:56:28.136Z,1.45
2022-09-14T14:58:36.129Z,1.67
2022-09-14T15:00:39.380Z,1.25
2022-09-14T15:02:42.234Z,1.55
2022-09-14T15:04:44.830Z,1.10
2022-09-14T15:06:49.160Z,1.10
2022-09-14T15:08:54.296Z,1.02
2022-09-14T15:10:58.066Z,1.08
2022-09-14T15:13:00.686Z,1.17
2022-09-14T15:15:04.853Z,1.08
2022-09-14T15:17:07.442Z,1.40
2022-09-14T15:19:10.580Z,1.15
2022-09-14T15:21:13.189Z,1.55
2022-09-14T15:23:17.129Z,1.33
2022-09-14T15:25:21.164Z,1.30
2022-09-14T15:27:23.882Z,1.30
2022-09-14T15:29:26.513Z,1.30
2022-09-14T15:31:29.705Z,1.08
2022-09-14T15:33:32.445Z,1.10
2022-09-14T15:35:35.079Z,0.95
2022-09-14T15:37:37.718Z,1.08
2022-09-14T15:39:46.074Z,1.20
2022-09-14T15:41:51.375Z,0.93
2022-09-14T15:43:53.932Z,0.85
2022-09-14T15:45:56.632Z,1.10
2022-09-14T15:47:59.294Z,1.10
2022-09-14T15:50:01.913Z,0.68
2022-09-14T15:52:04.948Z,0.90
2022-09-14T15:54:07.554Z,0.88
2022-09-14T15:56:12.850Z,1.00
2022-09-14T15:58:15.506Z,0.85
2022-09-14T16:00:19.444Z,1.02
2022-09-14T16:02:22.092Z,1.10
2022-09-14T16:04:24.918Z,0.90
2022-09-14T16:06:28.756Z,1.10
2022-09-14T16:08:31.671Z,0.93
2022-09-14T16:10:34.506Z,1.00
2022-09-14T16:12:38.481Z,0.90
2022-09-14T16:14:41.206Z,1.00
2022-09-14T16:16:43.879Z,1.00
2022-09-14T16:18:47.111Z,0.90
2022-09-14T16:20:49.701Z,1.00
2022-09-14T16:22:52.438Z,1.00
2022-09-14T16:24:55.028Z,0.88
2022-09-14T16:26:58.756Z,1.25
2022-09-14T16:29:03.321Z,0.93
2022-09-14T16:31:08.025Z,0.90
2022-09-14T16:33:10.637Z,1.08
2022-09-14T16:35:13.241Z,0.85
2022-09-14T16:37:16.760Z,1.00
2022-09-14T16:39:22.406Z,1.20
2022-09-14T16:41:25.453Z,1.05
2022-09-14T16:43:29.944Z,1.00
2022-09-14T16:45:33.969Z,1.50
2022-09-14T16:47:37.519Z,0.90
2022-09-14T16:49:40.276Z,1.10
2022-09-14T16:51:43.392Z,1.00
2022-09-14T16:53:47.370Z,1.10
2022-09-14T16:55:49.986Z,1.10
2022-09-14T16:57:52.620Z,0.90
2022-09-14T16:59:55.459Z,1.10
2022-09-14T17:01:59.734Z,0.90
2022-09-14T17:04:08.177Z,1.13
2022-09-14T17:06:13.878Z,1.13
2022-09-14T17:08:16.520Z,1.17
2022-09-14T17:10:19.135Z,1.05
2022-09-14T17:12:21.708Z,1.40
2022-09-14T17:14:26.980Z,1.02
2022-09-14T17:16:30.566Z,1.00
2022-09-14T17:18:36.154Z,1.15
2022-09-14T17:20:38.711Z,1.20
2022-09-14T17:22:41.354Z,1.10
2022-09-14T17:24:43.979Z,1.17
2022-09-14T17:26:47.672Z,1.40
2022-09-14T17:28:52.011Z,1.35
2022-09-14T17:30:56.564Z,1.00
2022-09-14T17:32:59.162Z,1.08
2022-09-14T17:35:03.659Z,1.80
2022-09-14T17:37:06.504Z,1.02
2022-09-14T17:39:11.971Z,1.13
2022-09-14T17:41:17.870Z,1.15
2022-09-14T17:43:21.178Z,1.10
2022-09-14T17:45:23.776Z,1.17
2022-09-14T17:47:26.399Z,1.20
2022-09-14T17:49:29.047Z,1.10
2022-09-14T17:51:36.286Z,1.20
2022-09-14T17:53:40.004Z,1.10
2022-09-14T17:55:43.200Z,1.10
2022-09-14T17:57:46.167Z,1.17
2022-09-14T17:59:49.043Z,1.52
2022-09-14T18:01:51.641Z,1.00
2022-09-14T18:03:57.078Z,1.33
2022-09-14T18:05:59.741Z,1.20
2022-09-14T18:08:03.953Z,1.30
2022-09-14T18:10:07.401Z,1.20
2022-09-14T18:12:10.335Z,1.50
2022-09-14T18:14:14.297Z,1.42
2022-09-14T18:16:18.993Z,1.30
2022-09-14T18:18:21.617Z,1.50
2022-09-14T18:20:24.189Z,2.13
2022-09-14T18:22:27.174Z,2.10
2022-09-14T18:24:31.279Z,1.42
2022-09-14T18:26:34.172Z,1.40
2022-09-14T18:28:37.357Z,1.55
2022-09-14T18:30:43.497Z,1.35
2022-09-14T18:34:49.623Z,1.30
2022-09-14T18:36:52.657Z,1.95
2022-09-14T18:38:55.343Z,1.38
2022-09-14T18:41:04.967Z,1.40
2022-09-14T18:43:07.586Z,1.33
2022-09-14T18:45:11.120Z,1.45
2022-09-14T18:47:13.744Z,1.52
2022-09-14T18:49:16.348Z,1.50
2022-09-14T18:51:18.960Z,1.40
2022-09-14T18:53:21.556Z,1.73
2022-09-14T18:55:24.748Z,1.52
2022-09-14T18:57:28.904Z,1.63
2022-09-14T18:59:31.484Z,1.52
2022-09-14T19:01:35.036Z,1.50
2022-09-14T19:03:39.205Z,1.48
2022-09-14T19:05:42.975Z,1.35
2022-09-14T19:07:45.712Z,1.85
2022-09-14T19:09:48.407Z,1.30
2022-09-14T19:11:51.043Z,1.85
2022-09-14T19:13:58.357Z,1.70
2022-09-14T19:16:07.240Z,2.22
2022-09-14T19:18:12.654Z,1.40
2022-09-14T19:20:15.552Z,1.40
2022-09-14T19:22:18.155Z,1.30
2022-09-14T19:24:20.956Z,1.40
2022-09-14T19:26:23.576Z,1.73
2022-09-14T19:28:26.173Z,1.40
2022-09-14T19:30:30.162Z,1.90
2022-09-14T19:32:32.764Z,1.35
2022-09-14T19:34:36.278Z,1.40
2022-09-14T19:36:38.856Z,1.60
2022-09-14T19:38:41.641Z,1.40
2022-09-14T19:40:51.867Z,1.60
2022-09-14T19:42:55.252Z,1.50
2022-09-14T19:44:57.908Z,1.38
2022-09-14T19:47:02.559Z,1.30
2022-09-14T19:49:05.438Z,1.50
2022-09-14T19:51:09.823Z,1.80
2022-09-14T19:53:12.930Z,1.58
2022-09-14T19:55:15.558Z,1.42
2022-09-14T19:57:18.164Z,1.42
2022-09-14T19:59:20.885Z,1.45
2022-09-14T20:01:25.491Z,1.52
2022-09-14T20:03:29.598Z,1.40
2022-09-14T20:05:32.214Z,1.50
2022-09-14T20:07:34.786Z,1.40
2022-09-14T20:09:38.362Z,1.50
2022-09-14T20:11:43.042Z,1.17
2022-09-14T20:13:45.833Z,1.45
2022-09-14T20:15:48.548Z,1.60
2022-09-14T20:17:55.258Z,1.98
2022-09-14T20:19:59.194Z,1.50
2022-09-14T20:22:01.761Z,1.77
2022-09-14T20:24:21.770Z,1.50
2022-09-14T20:26:25.922Z,1.50
2022-09-14T20:28:28.553Z,2.42
2022-09-14T20:30:31.204Z,2.90
2022-09-14T20:32:33.833Z,1.40
2022-09-14T20:34:36.408Z,1.63
2022-09-14T20:36:41.239Z,1.30
2022-09-14T20:38:49.644Z,1.60
2022-09-14T20:40:56.681Z,1.70
2022-09-14T20:42:59.319Z,1.52
2022-09-14T20:45:01.923Z,1.40
2022-09-14T20:47:04.594Z,1.70
2022-09-14T20:49:10.080Z,1.45
2022-09-14T20:51:16.081Z,1.35
2022-09-14T20:53:22.616Z,1.60
2022-09-14T20:55:25.917Z,1.65
2022-09-14T20:57:28.508Z,1.50
2022-09-14T20:59:31.405Z,1.77
2022-09-14T21:01:38.839Z,1.50
2022-09-14T21:03:42.882Z,1.50
2022-09-14T21:05:46.338Z,1.50
2022-09-14T21:07:56.144Z,1.80
2022-09-14T21:10:00.429Z,1.33
2022-09-14T21:12:03.525Z,1.80
2022-09-14T21:14:06.950Z,1.52
2022-09-14T21:16:11.518Z,1.75
2022-09-14T21:18:17.563Z,1.73
2022-09-14T21:20:22.629Z,1.30
2022-09-14T21:22:25.198Z,1.77
2022-09-14T21:24:27.821Z,1.50
2022-09-14T21:26:34.031Z,1.90
2022-09-14T21:28:38.632Z,1.85
2022-09-14T21:30:41.220Z,1.60
2022-09-14T21:32:48.231Z,1.80
2022-09-14T21:34:50.927Z,1.65
2022-09-14T21:36:53.950Z,1.70
2022-09-14T21:38:57.975Z,1.60
2022-09-14T21:41:00.834Z,1.40
2022-09-14T21:43:04.807Z,1.48
2022-09-14T21:45:08.197Z,2.60
2022-09-14T21:47:10.812Z,1.48
2022-09-14T21:49:15.801Z,1.95
2022-09-14T21:51:19.891Z,1.63
2022-09-14T21:53:22.482Z,1.60
2022-09-14T21:55:25.162Z,1.50
2022-09-14T21:57:27.744Z,1.48
2022-09-14T21:59:31.673Z,1.70
2022-09-14T22:01:34.680Z,1.50
2022-09-14T22:03:37.832Z,1.60
2022-09-14T22:05:40.631Z,1.63
2022-09-14T22:07:43.934Z,1.60
2022-09-14T22:09:46.569Z,1.70
2022-09-14T22:11:49.318Z,1.98
2022-09-14T22:13:54.986Z,1.40
2022-09-14T22:15:59.089Z,1.75
2022-09-14T22:18:02.475Z,1.55
2022-09-14T22:20:05.668Z,1.77
2022-09-14T22:22:08.441Z,1.80
2022-09-14T22:24:13.220Z,1.48
2022-09-14T22:26:16.547Z,1.60
2022-09-14T22:28:19.235Z,1.98
2022-09-14T22:30:22.099Z,1.80
2022-09-14T22:32:26.062Z,1.52
2022-09-14T22:34:29.635Z,1.65
2022-09-14T22:36:32.489Z,1.80
2022-09-14T22:38:35.682Z,1.83
2022-09-14T22:40:38.391Z,2.05
2022-09-14T22:42:40.995Z,1.70
2022-09-14T22:44:43.554Z,1.77
2022-09-14T22:46:46.470Z,1.88
2022-09-14T22:48:51.267Z,2.20
2022-09-14T22:50:57.459Z,1.63
2022-09-14T22:53:00.022Z,2.30
2022-09-14T22:55:02.632Z,1.90
2022-09-14T22:57:05.247Z,1.85
2022-09-14T22:59:10.408Z,2.28
2022-09-14T23:01:16.234Z,2.00
2022-09-14T23:03:19.415Z,1.95
2022-09-14T23:05:23.354Z,1.88
2022-09-14T23:07:25.983Z,2.05
2022-09-14T23:09:28.646Z,1.73
2022-09-14T23:11:31.661Z,2.00
2022-09-14T23:13:36.589Z,1.67
2022-09-14T23:15:39.817Z,1.80
2022-09-14T23:17:42.398Z,1.80
2022-09-14T23:19:44.938Z,1.60
2022-09-14T23:21:48.874Z,1.85
2022-09-14T23:23:52.919Z,2.17
2022-09-14T23:25:55.766Z,1.77
2022-09-14T23:27:58.356Z,2.10
2022-09-14T23:30:00.963Z,1.88
2022-09-14T23:32:04.029Z,2.22
2022-09-14T23:34:06.874Z,1.77
2022-09-14T23:36:09.643Z,1.83
2022-09-14T23:38:13.588Z,2.28
2022-09-14T23:40:18.249Z,1.83
2022-09-14T23:42:20.900Z,1.98
2022-09-14T23:44:23.731Z,2.17
2022-09-14T23:46:26.693Z,2.00
2022-09-14T23:48:29.439Z,2.10
2022-09-14T23:50:32.052Z,2.67
2022-09-14T23:52:34.621Z,2.30
2022-09-14T23:54:38.548Z,2.10
2022-09-14T23:56:41.387Z,2.17
2022-09-14T23:58:44.741Z,2.00
